Terminal Aerodrome Forecast
Issued by NWS Wilmington, NC

Home | Current Version | Previous Version | Text Only | Print | Product List | Glossary On
Versions: 1 2 3 4 5 6 7 8 9 10 11 12 13 14 15 16 17 18 19 20 21
000
FTUS42 KILM 171700
TAFILM
TAF
KILM 171728Z 1718/1818 10005KT P6SM VCSH SCT025 BKN040
     FM171900 VRB10KT 4SM -SHRA VCTS SCT008 BKN015CB
     FM180000 03004KT P6SM VCSH SCT020 OVC060
     FM180500 03003KT 3SM BR SCT008 BKN012
     FM181000 02003KT 1SM BR BKN002 OVC012
     FM181300 04006KT 4SM BR SCT003 BKN020
     FM181600 06007KT P6SM SCT025 BKN040=

USA.gov is the U.S. government's official web portal to all federal, state and local government web resources and services.